createdAt,value
2016-09-21T03:00:57.661Z,1021.14
2016-09-21T03:01:23.224Z,1021.18
2016-09-21T03:01:48.801Z,1021.21
2016-09-21T03:02:14.341Z,1021.15
2016-09-21T03:02:40.260Z,1021.16
2016-09-21T03:03:05.826Z,1021.17
2016-09-21T03:03:31.345Z,1021.16
2016-09-21T03:03:56.898Z,1021.16
2016-09-21T03:04:22.445Z,1021.18
2016-09-21T03:04:47.995Z,1021.15
2016-09-21T03:05:13.760Z,1021.15
2016-09-21T03:05:39.309Z,1021.17
2016-09-21T03:06:04.885Z,1021.15
2016-09-21T03:06:30.532Z,1021.14
2016-09-21T03:06:56.089Z,1021.12
2016-09-21T03:07:21.651Z,1021.17
2016-09-21T03:07:47.235Z,1021.18
2016-09-21T03:08:12.782Z,1021.16
2016-09-21T03:08:38.351Z,1021.21
2016-09-21T03:09:03.930Z,1021.19
2016-09-21T03:09:29.487Z,1021.22
2016-09-21T03:10:42.931Z,1021.2
2016-09-21T03:11:08.531Z,1021.21
2016-09-21T03:11:34.281Z,1021.2
2016-09-21T03:11:59.956Z,1021.17
2016-09-21T03:12:25.524Z,1021.2
2016-09-21T03:12:51.059Z,1021.16
2016-09-21T03:13:16.673Z,1021.21
2016-09-21T03:13:42.250Z,1021.17
2016-09-21T03:14:07.811Z,1021.19
2016-09-21T03:14:33.383Z,1021.21
2016-09-21T03:14:59.130Z,1021.22
2016-09-21T03:15:24.670Z,1021.19
2016-09-21T03:15:50.207Z,1021.24
2016-09-21T03:16:15.743Z,1021.23
2016-09-21T03:16:41.276Z,1021.21
2016-09-21T03:17:06.833Z,1021.22
2016-09-21T03:17:32.382Z,1021.19
2016-09-21T03:17:57.928Z,1021.22
2016-09-21T03:18:23.461Z,1021.22
2016-09-21T03:18:49.009Z,1021.17
2016-09-21T03:19:14.572Z,1021.16
2016-09-21T03:19:40.143Z,1021.18
2016-09-21T03:20:05.718Z,1021.18
2016-09-21T03:20:31.284Z,1021.23
2016-09-21T03:20:56.832Z,1021.18
2016-09-21T03:21:22.428Z,1021.21
2016-09-21T03:21:48.005Z,1021.19
2016-09-21T03:22:13.631Z,1021.2
2016-09-21T03:22:39.181Z,1021.19
2016-09-21T03:23:04.755Z,1021.22
2016-09-21T03:23:30.303Z,1021.21
2016-09-21T03:23:55.859Z,1021.18
2016-09-21T03:24:21.409Z,1021.15
2016-09-21T03:24:47.034Z,1021.16
2016-09-21T03:25:12.574Z,1021.19
2016-09-21T03:25:38.153Z,1021.18
2016-09-21T03:26:03.703Z,1021.16
2016-09-21T03:26:29.248Z,1021.16
2016-09-21T03:26:54.821Z,1021.19
2016-09-21T03:27:20.374Z,1021.18
2016-09-21T03:27:45.926Z,1021.19
2016-09-21T03:28:11.486Z,1021.17
2016-09-21T03:28:37.040Z,1021.15
2016-09-21T03:29:02.583Z,1021.18
2016-09-21T03:29:28.245Z,1021.16
2016-09-21T03:29:54.693Z,1021.15
2016-09-21T03:30:20.254Z,1021.12
2016-09-21T03:30:46.686Z,1021.21
2016-09-21T03:31:12.233Z,1021.18
2016-09-21T03:31:37.787Z,1021.17
2016-09-21T03:32:46.235Z,1021.15
2016-09-21T03:33:11.799Z,1021.16
2016-09-21T03:33:37.399Z,1021.11
2016-09-21T03:34:03.057Z,1021.16
2016-09-21T03:34:28.624Z,1021.2
2016-09-21T03:34:54.164Z,1021.15
2016-09-21T03:35:19.735Z,1021.15
2016-09-21T03:35:45.298Z,1021.14
2016-09-21T03:36:10.864Z,1021.14
2016-09-21T03:36:36.414Z,1021.17
2016-09-21T03:37:01.968Z,1021.16
2016-09-21T03:37:27.554Z,1021.16
2016-09-21T03:37:53.198Z,1021.19
2016-09-21T03:38:18.773Z,1021.17
2016-09-21T03:38:44.317Z,1021.15
2016-09-21T03:39:09.860Z,1021.19
2016-09-21T03:39:35.435Z,1021.16
2016-09-21T03:40:01.065Z,1021.18
2016-09-21T03:40:26.619Z,1021.23
2016-09-21T03:40:52.194Z,1021.17
2016-09-21T03:41:17.745Z,1021.22
2016-09-21T03:41:43.303Z,1021.19
2016-09-21T03:42:08.890Z,1021.2
2016-09-21T03:42:34.445Z,1021.19
2016-09-21T03:43:00.005Z,1021.17
2016-09-21T03:43:25.578Z,1021.22
2016-09-21T03:43:51.173Z,1021.19
2016-09-21T03:44:16.741Z,1021.21
2016-09-21T03:44:42.304Z,1021.19
2016-09-21T03:45:07.909Z,1021.22
2016-09-21T03:45:33.472Z,1021.21
2016-09-21T03:45:59.032Z,1021.18
2016-09-21T03:46:24.581Z,1021.21
2016-09-21T03:46:50.162Z,1021.22
2016-09-21T03:47:15.733Z,1021.21
2016-09-21T03:47:41.270Z,1021.19
2016-09-21T03:48:06.844Z,1021.2
2016-09-21T03:48:32.409Z,1021.22
2016-09-21T03:48:57.958Z,1021.19
2016-09-21T03:49:23.532Z,1021.2
2016-09-21T03:49:49.140Z,1021.2
2016-09-21T03:50:14.688Z,1021.22
2016-09-21T03:50:40.259Z,1021.2
2016-09-21T03:51:05.883Z,1021.2
2016-09-21T03:51:31.487Z,1021.17
2016-09-21T03:51:57.065Z,1021.22
2016-09-21T03:52:22.739Z,1021.19
2016-09-21T03:52:48.350Z,1021.21
2016-09-21T03:53:13.900Z,1021.19
2016-09-21T03:53:40.013Z,1021.18
2016-09-21T03:54:05.585Z,1021.17
2016-09-21T03:54:31.140Z,1021.14
2016-09-21T03:54:56.823Z,1021.2
2016-09-21T03:55:22.374Z,1021.18
2016-09-21T03:55:47.949Z,1021.22
2016-09-21T03:56:13.516Z,1021.22
2016-09-21T03:56:39.199Z,1021.23
2016-09-21T03:57:04.760Z,1021.25
2016-09-21T03:57:30.326Z,1021.22
2016-09-21T03:57:55.864Z,1021.24
2016-09-21T03:58:21.420Z,1021.23
2016-09-21T03:58:46.961Z,1021.23
2016-09-21T03:59:12.524Z,1021.24
2016-09-21T03:59:38.068Z,1021.27
2016-09-21T04:00:03.620Z,1021.2
2016-09-21T04:00:29.160Z,1021.23
2016-09-21T04:00:54.784Z,1021.24
2016-09-21T04:01:20.342Z,1021.24
2016-09-21T04:01:45.899Z,1021.27
2016-09-21T04:02:11.445Z,1021.25
2016-09-21T04:02:37.056Z,1021.23
2016-09-21T04:03:02.631Z,1021.25
2016-09-21T04:03:28.197Z,1021.26
2016-09-21T04:03:53.781Z,1021.24
2016-09-21T04:04:19.348Z,1021.24
2016-09-21T04:04:44.911Z,1021.25
2016-09-21T04:05:10.572Z,1021.27
2016-09-21T04:05:36.164Z,1021.25
2016-09-21T04:06:01.762Z,1021.22
2016-09-21T04:06:27.367Z,1021.27
2016-09-21T04:06:52.931Z,1021.23
2016-09-21T04:07:18.545Z,1021.25
2016-09-21T04:07:44.090Z,1021.21
2016-09-21T04:08:09.648Z,1021.26
2016-09-21T04:08:35.409Z,1021.23
2016-09-21T04:09:00.798Z,1021.25
2016-09-21T04:09:26.358Z,1021.21
2016-09-21T04:09:51.950Z,1021.27
2016-09-21T04:10:17.510Z,1021.26
2016-09-21T04:10:43.078Z,1021.24
2016-09-21T04:11:08.646Z,1021.26
2016-09-21T04:11:34.291Z,1021.26
2016-09-21T04:11:59.843Z,1021.26
2016-09-21T04:12:25.423Z,1021.29
2016-09-21T04:13:38.972Z,1021.23
2016-09-21T04:14:04.531Z,1021.21
2016-09-21T04:14:30.087Z,1021.21
2016-09-21T04:14:55.695Z,1021.22
2016-09-21T04:15:21.310Z,1021.27
2016-09-21T04:15:46.874Z,1021.24
2016-09-21T04:16:12.441Z,1021.25
2016-09-21T04:16:38.027Z,1021.27
2016-09-21T04:17:03.659Z,1021.24
2016-09-21T04:17:29.235Z,1021.25
2016-09-21T04:17:54.788Z,1021.28
2016-09-21T04:18:20.486Z,1021.28
2016-09-21T04:18:46.061Z,1021.28
2016-09-21T04:19:11.662Z,1021.28
2016-09-21T04:19:37.331Z,1021.28
2016-09-21T04:20:02.893Z,1021.27
2016-09-21T04:20:28.540Z,1021.28
2016-09-21T04:20:54.173Z,1021.3
2016-09-21T04:21:19.744Z,1021.28
2016-09-21T04:21:45.300Z,1021.26
2016-09-21T04:22:10.912Z,1021.25
2016-09-21T04:22:36.460Z,1021.27
2016-09-21T04:23:01.999Z,1021.28
2016-09-21T04:23:27.564Z,1021.26
2016-09-21T04:23:53.164Z,1021.3
2016-09-21T04:24:18.739Z,1021.27
2016-09-21T04:24:44.280Z,1021.26
2016-09-21T04:25:09.894Z,1021.28
2016-09-21T04:25:35.466Z,1021.27
2016-09-21T04:26:01.011Z,1021.32
2016-09-21T04:26:26.627Z,1021.31
2016-09-21T04:26:52.189Z,1021.28
2016-09-21T04:27:17.780Z,1021.3
2016-09-21T04:27:43.347Z,1021.23
2016-09-21T04:28:08.908Z,1021.29
2016-09-21T04:28:34.486Z,1021.25
2016-09-21T04:29:00.061Z,1021.27
2016-09-21T04:29:25.639Z,1021.3
2016-09-21T04:29:51.264Z,1021.25
2016-09-21T04:30:59.559Z,1021.3
2016-09-21T04:31:25.111Z,1021.28
2016-09-21T04:31:50.648Z,1021.27
2016-09-21T04:32:16.209Z,1021.31
2016-09-21T04:32:41.754Z,1021.31
2016-09-21T04:33:07.316Z,1021.34
2016-09-21T04:33:32.887Z,1021.32
2016-09-21T04:33:58.419Z,1021.32
2016-09-21T04:34:23.986Z,1021.31
2016-09-21T04:34:49.517Z,1021.34
2016-09-21T04:35:15.058Z,1021.32
2016-09-21T04:35:40.683Z,1021.27
2016-09-21T04:36:06.215Z,1021.28
2016-09-21T04:36:31.819Z,1021.31
2016-09-21T04:36:57.456Z,1021.3
2016-09-21T04:37:23.003Z,1021.29
2016-09-21T04:37:48.563Z,1021.3
2016-09-21T04:38:14.100Z,1021.31
2016-09-21T04:38:39.675Z,1021.34
2016-09-21T04:39:05.453Z,1021.32
2016-09-21T04:39:31.082Z,1021.33
2016-09-21T04:39:56.625Z,1021.31
2016-09-21T04:40:22.184Z,1021.31
2016-09-21T04:40:47.711Z,1021.34
2016-09-21T04:41:13.278Z,1021.28
2016-09-21T04:41:38.901Z,1021.33
2016-09-21T04:42:04.457Z,1021.31
2016-09-21T04:42:30.004Z,1021.31
2016-09-21T04:42:55.544Z,1021.3
2016-09-21T04:43:21.131Z,1021.34
2016-09-21T04:43:46.689Z,1021.29
2016-09-21T04:44:12.394Z,1021.36
2016-09-21T04:44:37.950Z,1021.32
2016-09-21T04:45:03.512Z,1021.33
2016-09-21T04:45:29.175Z,1021.33
2016-09-21T04:45:54.805Z,1021.37
2016-09-21T04:46:20.384Z,1021.33
2016-09-21T04:46:46.008Z,1021.35
2016-09-21T04:47:11.565Z,1021.36
2016-09-21T04:47:37.180Z,1021.32
2016-09-21T04:48:02.783Z,1021.37
2016-09-21T04:48:28.381Z,1021.35
2016-09-21T04:48:53.947Z,1021.37
2016-09-21T04:49:19.510Z,1021.38
2016-09-21T04:49:45.089Z,1021.36
2016-09-21T04:50:10.649Z,1021.38
2016-09-21T04:50:36.230Z,1021.42
2016-09-21T04:51:01.793Z,1021.37
2016-09-21T04:51:27.425Z,1021.4
2016-09-21T04:51:52.966Z,1021.4
2016-09-21T04:52:18.520Z,1021.4
2016-09-21T04:52:44.088Z,1021.39
2016-09-21T04:53:09.653Z,1021.41
2016-09-21T04:53:35.176Z,1021.38
2016-09-21T04:54:00.716Z,1021.38
2016-09-21T04:54:26.322Z,1021.41
2016-09-21T04:54:51.984Z,1021.43
2016-09-21T04:55:17.557Z,1021.42
2016-09-21T04:55:43.138Z,1021.44
2016-09-21T04:56:08.736Z,1021.42
2016-09-21T04:56:34.311Z,1021.39
2016-09-21T04:56:59.879Z,1021.44
2016-09-21T04:57:25.452Z,1021.43
2016-09-21T04:57:51.026Z,1021.46
2016-09-21T04:58:16.593Z,1021.44
2016-09-21T04:58:42.166Z,1021.45
2016-09-21T04:59:07.733Z,1021.47
2016-09-21T04:59:33.293Z,1021.44
2016-09-21T04:59:58.879Z,1021.45
2016-09-21T05:00:24.552Z,1021.47
2016-09-21T05:00:50.145Z,1021.44
2016-09-21T05:01:15.695Z,1021.46
2016-09-21T05:01:41.323Z,1021.44
2016-09-21T05:02:06.882Z,1021.45
2016-09-21T05:02:32.456Z,1021.41
2016-09-21T05:02:57.989Z,1021.46
2016-09-21T05:03:23.530Z,1021.39
2016-09-21T05:03:49.082Z,1021.44
2016-09-21T05:04:14.625Z,1021.44
2016-09-21T05:04:40.193Z,1021.42
2016-09-21T05:05:05.738Z,1021.47
2016-09-21T05:05:31.308Z,1021.43
2016-09-21T05:05:56.843Z,1021.43
2016-09-21T05:06:22.542Z,1021.44
2016-09-21T05:06:48.107Z,1021.47
2016-09-21T05:07:13.775Z,1021.45
2016-09-21T05:07:39.355Z,1021.51
2016-09-21T05:08:04.906Z,1021.46
2016-09-21T05:08:30.556Z,1021.46
2016-09-21T05:08:56.184Z,1021.5
2016-09-21T05:09:21.724Z,1021.51
2016-09-21T05:09:47.302Z,1021.48
2016-09-21T05:10:12.892Z,1021.48
2016-09-21T05:10:38.506Z,1021.48
2016-09-21T05:11:04.086Z,1021.53
2016-09-21T05:11:29.766Z,1021.49
2016-09-21T05:11:55.342Z,1021.52
2016-09-21T05:12:20.895Z,1021.5
2016-09-21T05:12:46.437Z,1021.5
2016-09-21T05:13:11.989Z,1021.49
2016-09-21T05:13:37.521Z,1021.49
2016-09-21T05:14:03.071Z,1021.53
2016-09-21T05:14:28.621Z,1021.53
2016-09-21T05:14:54.228Z,1021.53
2016-09-21T05:15:19.785Z,1021.5
2016-09-21T05:15:45.334Z,1021.47
2016-09-21T05:16:10.912Z,1021.5
2016-09-21T05:16:36.472Z,1021.48
2016-09-21T05:17:02.036Z,1021.52
2016-09-21T05:17:27.666Z,1021.49
2016-09-21T05:18:30.875Z,1021.52
2016-09-21T05:18:56.426Z,1021.5
2016-09-21T05:19:22.025Z,1021.51
2016-09-21T05:19:47.593Z,1021.5
2016-09-21T05:20:13.188Z,1021.48
2016-09-21T05:20:38.770Z,1021.51
2016-09-21T05:21:04.323Z,1021.43
2016-09-21T05:21:29.887Z,1021.48
2016-09-21T05:21:55.458Z,1021.46
2016-09-21T05:22:21.003Z,1021.47
2016-09-21T05:22:46.581Z,1021.44
2016-09-21T05:23:44.690Z,1021.43
2016-09-21T05:24:10.238Z,1021.45
2016-09-21T05:24:35.818Z,1021.43
2016-09-21T05:25:01.365Z,1021.41
2016-09-21T05:25:26.916Z,1021.42
2016-09-21T05:25:52.463Z,1021.42
2016-09-21T05:26:18.022Z,1021.41
2016-09-21T05:26:43.567Z,1021.43
2016-09-21T05:27:09.180Z,1021.41
2016-09-21T05:27:34.739Z,1021.42
2016-09-21T05:28:43.039Z,1021.37
2016-09-21T05:29:08.586Z,1021.39
2016-09-21T05:29:34.260Z,1021.38
2016-09-21T05:30:47.922Z,1021.34
2016-09-21T05:31:13.487Z,1021.33
2016-09-21T05:31:39.061Z,1021.32
2016-09-21T05:32:04.613Z,1021.36
2016-09-21T05:32:30.312Z,1021.36
2016-09-21T05:32:55.877Z,1021.32
2016-09-21T05:33:21.418Z,1021.37
2016-09-21T05:33:46.981Z,1021.38
2016-09-21T05:34:12.578Z,1021.36
2016-09-21T05:34:38.135Z,1021.34
2016-09-21T05:35:03.697Z,1021.35
2016-09-21T05:35:29.253Z,1021.34
2016-09-21T05:35:54.919Z,1021.33
2016-09-21T05:36:20.478Z,1021.35
2016-09-21T05:36:46.232Z,1021.37
2016-09-21T05:37:11.781Z,1021.32
2016-09-21T05:37:37.338Z,1021.34
2016-09-21T05:38:02.894Z,1021.33
2016-09-21T05:38:28.480Z,1021.38
2016-09-21T05:38:54.133Z,1021.36
2016-09-21T05:39:19.688Z,1021.36
2016-09-21T05:39:45.247Z,1021.35
2016-09-21T05:40:10.852Z,1021.34
2016-09-21T05:40:36.409Z,1021.36
2016-09-21T05:41:01.958Z,1021.37
2016-09-21T05:41:27.529Z,1021.35
2016-09-21T05:41:53.108Z,1021.37
2016-09-21T05:42:18.682Z,1021.38
2016-09-21T05:42:44.257Z,1021.39
2016-09-21T05:43:09.810Z,1021.36
2016-09-21T05:43:35.384Z,1021.38
2016-09-21T05:44:00.972Z,1021.34
2016-09-21T05:44:26.581Z,1021.33
2016-09-21T05:44:52.138Z,1021.37
2016-09-21T05:45:17.709Z,1021.32
2016-09-21T05:45:43.231Z,1021.34
2016-09-21T05:46:08.785Z,1021.34
2016-09-21T05:46:34.341Z,1021.34
2016-09-21T05:46:59.892Z,1021.34
2016-09-21T05:47:25.443Z,1021.36
2016-09-21T05:47:51.007Z,1021.33
2016-09-21T05:48:16.563Z,1021.31
2016-09-21T05:48:42.197Z,1021.3
2016-09-21T05:49:07.758Z,1021.32
2016-09-21T05:49:33.340Z,1021.34
2016-09-21T05:49:58.997Z,1021.36
2016-09-21T05:50:24.549Z,1021.34
2016-09-21T05:50:50.102Z,1021.33
2016-09-21T05:51:15.676Z,1021.37
2016-09-21T05:51:41.293Z,1021.34
2016-09-21T05:52:06.813Z,1021.37
2016-09-21T05:52:32.372Z,1021.39
2016-09-21T05:52:57.975Z,1021.38
2016-09-21T05:53:23.614Z,1021.4
2016-09-21T05:53:49.174Z,1021.35
2016-09-21T05:54:14.731Z,1021.4
2016-09-21T05:54:40.363Z,1021.41
2016-09-21T05:55:06.023Z,1021.36
2016-09-21T05:55:31.576Z,1021.4
2016-09-21T05:55:57.112Z,1021.35
2016-09-21T05:56:22.665Z,1021.36
2016-09-21T05:56:48.321Z,1021.38
2016-09-21T05:57:13.867Z,1021.4
2016-09-21T05:57:39.403Z,1021.42
2016-09-21T05:58:04.947Z,1021.43
2016-09-21T05:58:30.544Z,1021.44
2016-09-21T05:58:56.100Z,1021.41
2016-09-21T05:59:21.665Z,1021.41
2016-09-21T05:59:47.222Z,1021.39
2016-09-21T06:00:12.800Z,1021.39
2016-09-21T06:01:31.550Z,1021.42
2016-09-21T06:01:57.116Z,1021.42
2016-09-21T06:02:22.682Z,1021.42
2016-09-21T06:02:48.307Z,1021.38
2016-09-21T06:03:13.871Z,1021.42
2016-09-21T06:03:39.560Z,1021.43
2016-09-21T06:04:05.198Z,1021.42
2016-09-21T06:04:30.744Z,1021.47
2016-09-21T06:04:56.292Z,1021.42
2016-09-21T06:05:21.894Z,1021.44
2016-09-21T06:05:47.500Z,1021.44
2016-09-21T06:06:13.908Z,1021.42
2016-09-21T06:06:39.469Z,1021.39
2016-09-21T06:07:05.175Z,1021.43
2016-09-21T06:07:30.834Z,1021.44
2016-09-21T06:07:56.391Z,1021.43
2016-09-21T06:08:21.948Z,1021.42
2016-09-21T06:08:47.509Z,1021.4
2016-09-21T06:09:13.135Z,1021.39
2016-09-21T06:09:38.665Z,1021.42
2016-09-21T06:10:04.271Z,1021.4
2016-09-21T06:10:29.815Z,1021.43
2016-09-21T06:10:55.464Z,1021.41
2016-09-21T06:11:21.006Z,1021.38
2016-09-21T06:11:46.708Z,1021.38
2016-09-21T06:12:12.391Z,1021.37
2016-09-21T06:12:37.954Z,1021.43
2016-09-21T06:13:03.642Z,1021.41
2016-09-21T06:13:29.389Z,1021.35
2016-09-21T06:13:54.917Z,1021.45
2016-09-21T06:14:20.507Z,1021.4
2016-09-21T06:14:46.067Z,1021.38
2016-09-21T06:15:11.656Z,1021.4
2016-09-21T06:15:37.209Z,1021.38
2016-09-21T06:16:02.878Z,1021.41
2016-09-21T06:16:28.486Z,1021.39
2016-09-21T06:16:54.031Z,1021.36
2016-09-21T06:17:19.703Z,1021.4
2016-09-21T06:17:45.296Z,1021.36
2016-09-21T06:18:10.848Z,1021.38
2016-09-21T06:18:36.419Z,1021.41
2016-09-21T06:19:02.156Z,1021.41
2016-09-21T06:19:27.821Z,1021.38
2016-09-21T06:19:53.524Z,1021.39
2016-09-21T06:20:19.077Z,1021.38
2016-09-21T06:20:44.724Z,1021.41
2016-09-21T06:21:10.290Z,1021.43
2016-09-21T06:21:35.856Z,1021.39
2016-09-21T06:22:44.194Z,1021.4
2016-09-21T06:23:09.826Z,1021.36
2016-09-21T06:23:35.424Z,1021.39
2016-09-21T06:24:01.014Z,1021.37
2016-09-21T06:24:26.677Z,1021.39
2016-09-21T06:24:52.290Z,1021.34
2016-09-21T06:25:17.915Z,1021.36
2016-09-21T06:25:43.549Z,1021.36
2016-09-21T06:26:09.189Z,1021.32
2016-09-21T06:26:34.890Z,1021.31
2016-09-21T06:27:00.485Z,1021.32
2016-09-21T06:27:26.040Z,1021.3
2016-09-21T06:28:39.663Z,1021.27
2016-09-21T06:29:05.238Z,1021.28
2016-09-21T06:29:30.919Z,1021.32
2016-09-21T06:29:56.481Z,1021.32
2016-09-21T06:30:22.046Z,1021.35
2016-09-21T06:30:48.274Z,1021.35
2016-09-21T06:31:13.867Z,1021.31
2016-09-21T06:31:39.529Z,1021.35
2016-09-21T06:32:05.092Z,1021.35
2016-09-21T06:32:30.685Z,1021.36
2016-09-21T06:32:56.260Z,1021.35
2016-09-21T06:33:21.935Z,1021.36
2016-09-21T06:33:48.122Z,1021.41
2016-09-21T06:34:13.696Z,1021.35
2016-09-21T06:34:39.238Z,1021.36
2016-09-21T06:35:04.898Z,1021.35
2016-09-21T06:35:30.450Z,1021.37
2016-09-21T06:35:55.974Z,1021.33
2016-09-21T06:36:21.556Z,1021.37
2016-09-21T06:36:47.097Z,1021.39
2016-09-21T06:37:12.661Z,1021.37
2016-09-21T06:37:38.221Z,1021.39
2016-09-21T06:38:03.803Z,1021.41
2016-09-21T06:38:29.374Z,1021.37
2016-09-21T06:38:55.066Z,1021.37
2016-09-21T06:39:20.767Z,1021.42
2016-09-21T06:39:46.320Z,1021.45
2016-09-21T06:40:12.045Z,1021.39
2016-09-21T06:40:37.661Z,1021.42
2016-09-21T06:41:03.206Z,1021.4
2016-09-21T06:41:28.813Z,1021.43
2016-09-21T06:41:54.375Z,1021.37
2016-09-21T06:42:20.000Z,1021.34
2016-09-21T06:42:45.578Z,1021.4
2016-09-21T06:43:11.223Z,1021.39
2016-09-21T06:43:36.867Z,1021.42
2016-09-21T06:44:02.450Z,1021.39
2016-09-21T06:44:28.083Z,1021.41
2016-09-21T06:44:53.703Z,1021.41
2016-09-21T06:45:19.219Z,1021.44
2016-09-21T06:45:44.757Z,1021.46
2016-09-21T06:46:10.303Z,1021.48
2016-09-21T06:46:35.935Z,1021.44
2016-09-21T06:47:01.480Z,1021.47
2016-09-21T06:47:27.212Z,1021.49
2016-09-21T06:47:52.806Z,1021.43
2016-09-21T06:48:18.405Z,1021.43
2016-09-21T06:48:44.034Z,1021.45
2016-09-21T06:49:09.834Z,1021.46
2016-09-21T06:49:35.409Z,1021.43
2016-09-21T06:50:01.093Z,1021.43
2016-09-21T06:50:26.665Z,1021.43
2016-09-21T06:50:52.293Z,1021.46
2016-09-21T06:51:17.849Z,1021.45
2016-09-21T06:51:43.409Z,1021.47
2016-09-21T06:52:09.175Z,1021.45
2016-09-21T06:52:34.791Z,1021.52
2016-09-21T06:53:00.390Z,1021.5
2016-09-21T06:53:26.008Z,1021.53
2016-09-21T06:53:51.659Z,1021.49
2016-09-21T06:55:42.661Z,1021.49
2016-09-21T06:56:08.293Z,1021.52
2016-09-21T06:56:33.899Z,1021.5
2016-09-21T06:56:59.450Z,1021.52
2016-09-21T06:57:25.007Z,1021.51
2016-09-21T06:57:50.620Z,1021.52
2016-09-21T06:58:16.181Z,1021.51
2016-09-21T06:58:41.802Z,1021.5
2016-09-21T06:59:08.182Z,1021.56
2016-09-21T06:59:33.769Z,1021.54
2016-09-21T06:59:59.444Z,1021.53
2016-09-21T07:00:25.138Z,1021.54
2016-09-21T07:00:50.681Z,1021.53
2016-09-21T07:01:16.229Z,1021.55
2016-09-21T07:01:41.789Z,1021.52
2016-09-21T07:02:07.366Z,1021.55
2016-09-21T07:02:33.717Z,1021.56
2016-09-21T07:02:59.319Z,1021.52
2016-09-21T07:03:24.943Z,1021.54
2016-09-21T07:03:50.530Z,1021.56
2016-09-21T07:04:16.108Z,1021.55
2016-09-21T07:04:41.646Z,1021.57
2016-09-21T07:05:07.218Z,1021.51
2016-09-21T07:05:32.776Z,1021.55
2016-09-21T07:05:58.403Z,1021.55
2016-09-21T07:06:23.944Z,1021.55
2016-09-21T07:06:50.149Z,1021.53
2016-09-21T07:07:15.238Z,1021.56
2016-09-21T07:07:40.790Z,1021.57
2016-09-21T07:08:06.415Z,1021.58
2016-09-21T07:08:31.969Z,1021.55
2016-09-21T07:08:57.555Z,1021.56
2016-09-21T07:09:23.107Z,1021.55
2016-09-21T07:09:48.709Z,1021.54
2016-09-21T07:10:14.373Z,1021.54
2016-09-21T07:10:39.926Z,1021.52
2016-09-21T07:11:05.500Z,1021.53
2016-09-21T07:11:31.135Z,1021.5
2016-09-21T07:11:56.707Z,1021.48
2016-09-21T07:12:22.235Z,1021.46
2016-09-21T07:12:47.899Z,1021.49
2016-09-21T07:13:13.558Z,1021.51
2016-09-21T07:13:39.263Z,1021.51
2016-09-21T07:14:04.841Z,1021.47
2016-09-21T07:14:30.464Z,1021.49
2016-09-21T07:14:56.242Z,1021.47
2016-09-21T07:15:21.784Z,1021.5
2016-09-21T07:15:47.364Z,1021.48
2016-09-21T07:16:12.927Z,1021.51
2016-09-21T07:16:38.592Z,1021.48
2016-09-21T07:17:04.154Z,1021.44
2016-09-21T07:17:29.735Z,1021.47
2016-09-21T07:17:55.362Z,1021.49
2016-09-21T07:18:20.930Z,1021.46
2016-09-21T07:18:46.579Z,1021.43
2016-09-21T07:19:12.285Z,1021.43
2016-09-21T07:19:37.920Z,1021.43
2016-09-21T07:20:03.986Z,1021.43
2016-09-21T07:20:29.629Z,1021.43
2016-09-21T07:20:55.303Z,1021.36
2016-09-21T07:21:20.894Z,1021.44
2016-09-21T07:21:46.589Z,1021.38
2016-09-21T07:22:12.245Z,1021.41
2016-09-21T07:22:37.726Z,1021.4
2016-09-21T07:23:03.290Z,1021.41
2016-09-21T07:23:28.853Z,1021.43
2016-09-21T07:23:54.415Z,1021.42
2016-09-21T07:24:19.975Z,1021.43
2016-09-21T07:24:45.533Z,1021.4
2016-09-21T07:25:11.095Z,1021.42
2016-09-21T07:25:36.698Z,1021.44
2016-09-21T07:26:02.392Z,1021.44
2016-09-21T07:26:27.934Z,1021.41
2016-09-21T07:26:53.570Z,1021.39
2016-09-21T07:27:19.122Z,1021.43
2016-09-21T07:27:44.735Z,1021.39
2016-09-21T07:28:10.393Z,1021.45
2016-09-21T07:28:35.982Z,1021.41
2016-09-21T07:29:01.547Z,1021.44
2016-09-21T07:29:27.101Z,1021.43
2016-09-21T07:29:52.692Z,1021.48
2016-09-21T07:30:51.731Z,1021.42
2016-09-21T07:31:16.439Z,1021.46
2016-09-21T07:31:41.996Z,1021.46
2016-09-21T07:32:07.635Z,1021.46
2016-09-21T07:32:33.227Z,1021.47
2016-09-21T07:32:58.816Z,1021.44
2016-09-21T07:33:24.364Z,1021.46
2016-09-21T07:33:49.958Z,1021.45
2016-09-21T07:34:15.668Z,1021.44
2016-09-21T07:34:41.262Z,1021.48
2016-09-21T07:35:06.920Z,1021.44
2016-09-21T07:35:32.511Z,1021.44
2016-09-21T07:35:58.189Z,1021.44
2016-09-21T07:36:23.801Z,1021.49
2016-09-21T07:36:49.369Z,1021.49
2016-09-21T07:37:15.019Z,1021.48
2016-09-21T07:37:40.588Z,1021.48
2016-09-21T07:38:06.145Z,1021.46
2016-09-21T07:38:31.837Z,1021.5
2016-09-21T07:38:57.511Z,1021.49
2016-09-21T07:39:23.033Z,1021.51
2016-09-21T07:39:48.640Z,1021.55
2016-09-21T07:40:14.210Z,1021.56
2016-09-21T07:40:39.852Z,1021.6
2016-09-21T07:41:05.417Z,1021.58
2016-09-21T07:41:31.063Z,1021.57
2016-09-21T07:41:56.622Z,1021.61
2016-09-21T07:42:22.171Z,1021.59
2016-09-21T07:42:47.725Z,1021.63
2016-09-21T07:43:13.284Z,1021.59
2016-09-21T07:43:38.887Z,1021.63
2016-09-21T07:44:04.441Z,1021.65
2016-09-21T07:44:30.124Z,1021.62
2016-09-21T07:44:55.821Z,1021.65
2016-09-21T07:45:21.381Z,1021.63
2016-09-21T07:45:47.071Z,1021.66
2016-09-21T07:46:12.672Z,1021.61
2016-09-21T07:46:38.269Z,1021.65
2016-09-21T07:47:03.841Z,1021.66
2016-09-21T07:47:29.409Z,1021.66
2016-09-21T07:47:54.971Z,1021.65
2016-09-21T07:48:20.507Z,1021.64
2016-09-21T07:48:46.126Z,1021.68
2016-09-21T07:49:11.741Z,1021.68
2016-09-21T07:49:37.285Z,1021.66
2016-09-21T07:50:02.871Z,1021.67
2016-09-21T07:50:28.416Z,1021.67
2016-09-21T07:50:53.985Z,1021.66
2016-09-21T07:51:19.545Z,1021.66
2016-09-21T07:51:45.123Z,1021.67
2016-09-21T07:52:10.734Z,1021.62
2016-09-21T07:52:36.337Z,1021.64
2016-09-21T07:53:01.958Z,1021.65
2016-09-21T07:53:27.523Z,1021.65
2016-09-21T07:53:53.074Z,1021.68
2016-09-21T07:54:18.643Z,1021.63
2016-09-21T07:54:44.189Z,1021.65
2016-09-21T07:55:09.832Z,1021.66
2016-09-21T07:55:35.390Z,1021.65
2016-09-21T07:56:00.972Z,1021.7
2016-09-21T07:56:26.533Z,1021.66
2016-09-21T07:56:52.177Z,1021.68
2016-09-21T07:57:17.713Z,1021.66
2016-09-21T07:57:43.381Z,1021.66
2016-09-21T07:58:08.962Z,1021.63
2016-09-21T07:58:34.513Z,1021.64
2016-09-21T07:59:00.146Z,1021.64
2016-09-21T07:59:25.690Z,1021.64
2016-09-21T07:59:51.372Z,1021.66
2016-09-21T08:00:16.993Z,1021.66
2016-09-21T08:00:42.532Z,1021.65
2016-09-21T08:01:09.201Z,1021.58
2016-09-21T08:01:34.812Z,1021.62
2016-09-21T08:02:00.349Z,1021.6
2016-09-21T08:02:25.893Z,1021.6
2016-09-21T08:02:51.427Z,1021.58
2016-09-21T08:03:17.087Z,1021.64
2016-09-21T08:03:42.701Z,1021.62
2016-09-21T08:04:08.288Z,1021.63
2016-09-21T08:04:33.856Z,1021.64
2016-09-21T08:04:59.399Z,1021.63
2016-09-21T08:05:25.015Z,1021.65
2016-09-21T08:05:50.589Z,1021.64
2016-09-21T08:06:16.185Z,1021.68
2016-09-21T08:06:41.740Z,1021.66
2016-09-21T08:07:07.330Z,1021.65
2016-09-21T08:07:33.018Z,1021.68
2016-09-21T08:07:58.606Z,1021.68
2016-09-21T08:08:24.274Z,1021.71
2016-09-21T08:08:49.820Z,1021.76
2016-09-21T08:09:15.469Z,1021.73
2016-09-21T08:09:41.255Z,1021.74
2016-09-21T08:10:39.553Z,1021.76
2016-09-21T08:11:06.069Z,1021.74
2016-09-21T08:11:31.716Z,1021.72
2016-09-21T08:11:57.360Z,1021.73
2016-09-21T08:12:22.997Z,1021.72
2016-09-21T08:12:48.476Z,1021.71
2016-09-21T08:13:14.153Z,1021.73
2016-09-21T08:13:39.701Z,1021.68
2016-09-21T08:14:05.334Z,1021.67
2016-09-21T08:14:30.880Z,1021.68
2016-09-21T08:14:56.535Z,1021.67
2016-09-21T08:15:22.113Z,1021.66
2016-09-21T08:15:47.672Z,1021.64
2016-09-21T08:16:13.256Z,1021.67
2016-09-21T08:16:38.786Z,1021.67
2016-09-21T08:17:04.395Z,1021.69
2016-09-21T08:17:29.984Z,1021.65
2016-09-21T08:17:55.671Z,1021.7
2016-09-21T08:18:21.209Z,1021.67
2016-09-21T08:18:46.839Z,1021.66
2016-09-21T08:19:12.526Z,1021.69
2016-09-21T08:19:38.086Z,1021.71
2016-09-21T08:20:03.670Z,1021.69
2016-09-21T08:20:29.476Z,1021.7
2016-09-21T08:20:54.779Z,1021.71
2016-09-21T08:21:20.361Z,1021.71
2016-09-21T08:21:45.913Z,1021.71